Time;durP1;ratioP1;P1;durP2;ratioP2;P2;SDS_P1;SDS_P2;PMS_P1;PMS_P2;Temp;Humidity;BMP_temperature;BMP_pressure;BME280_temperature;BME280_humidity;BME280_pressure;Samples;Min_cycle;Max_cycle;Signal;HPM_P1;HPM_P2
2022/05/23 00:02:07;;;;;;;1.37;1.10;;;22.40;81.20;;;;;;5022699;28;20439;-79
2022/05/23 00:04:36;;;;;;;1.43;0.90;;;22.40;81.10;;;;;;5015500;28;20964;-80
2022/05/23 00:07:09;;;;;;;2.53;1.20;;;22.40;81.10;;;;;;5023224;28;21025;-81
2022/05/23 00:09:37;;;;;;;1.20;1.10;;;22.40;80.50;;;;;;5022267;28;20467;-80
2022/05/23 00:12:08;;;;;;;1.20;1.10;;;22.40;82.60;;;;;;5028885;28;20466;-80
2022/05/23 00:14:37;;;;;;;1.43;1.30;;;22.30;78.70;;;;;;5035214;28;20824;-80
2022/05/23 00:17:05;;;;;;;1.63;1.20;;;22.30;82.10;;;;;;5039701;28;21144;-80
2022/05/23 00:19:41;;;;;;;0.90;0.90;;;22.20;78.80;;;;;;5027155;28;20459;-79
2022/05/23 00:22:10;;;;;;;1.80;1.30;;;22.20;81.00;;;;;;5026368;28;20951;-80
2022/05/23 00:24:41;;;;;;;1.83;1.30;;;22.20;80.70;;;;;;5024957;28;20976;-79
2022/05/23 00:27:14;;;;;;;1.20;1.10;;;22.20;82.20;;;;;;5027897;28;20471;-79
2022/05/23 00:29:42;;;;;;;2.30;1.10;;;22.10;82.00;;;;;;5026726;28;21253;-79
2022/05/23 00:37:48;;;;;;;3.17;1.27;;;22.00;80.70;;;;;;5023681;28;21087;-79
2022/05/23 00:40:36;;;;;;;2.43;1.77;;;21.90;81.60;;;;;;5023684;28;20448;-79
2022/05/23 00:43:14;;;;;;;1.27;1.20;;;22.00;81.90;;;;;;5022627;28;20483;-82
2022/05/23 00:45:45;;;;;;;1.10;1.10;;;21.90;81.40;;;;;;5021874;28;20479;-80
2022/05/23 00:48:15;;;;;;;1.30;1.13;;;21.90;82.60;;;;;;5018350;28;20960;-80
2022/05/23 00:50:48;;;;;;;1.20;1.10;;;21.90;84.20;;;;;;5018092;28;20445;-79
2022/05/23 00:53:18;;;;;;;2.30;1.30;;;21.80;83.70;;;;;;5027629;28;20459;-79
2022/05/23 00:55:48;;;;;;;19.37;2.43;;;21.80;83.60;;;;;;5026238;28;20475;-79
2022/05/23 00:58:22;;;;;;;1.70;1.10;;;21.90;83.20;;;;;;5022830;28;20498;-80
2022/05/23 01:00:52;;;;;;;1.63;1.30;;;21.90;82.40;;;;;;5024626;28;20469;-79
2022/05/23 01:03:20;;;;;;;1.20;1.10;;;21.90;95.50;;;;;;5020454;28;20458;-79
2022/05/23 01:05:51;;;;;;;1.63;1.10;;;21.90;84.10;;;;;;5024936;28;20968;-79
2022/05/23 01:08:19;;;;;;;1.63;1.10;;;21.90;81.70;;;;;;5024793;28;20483;-80
2022/05/23 01:10:48;;;;;;;1.40;1.30;;;21.90;82.70;;;;;;5023955;28;20467;-80
2022/05/23 01:13:18;;;;;;;1.37;1.23;;;22.00;84.00;;;;;;5020630;28;20453;-80
2022/05/23 01:15:48;;;;;;;1.13;1.00;;;21.90;86.20;;;;;;5020743;28;20488;-80
2022/05/23 01:18:17;;;;;;;1.50;1.40;;;21.90;82.90;;;;;;5022977;28;20482;-79
2022/05/23 01:20:46;;;;;;;1.83;1.10;;;21.80;84.70;;;;;;5023363;28;20476;-80
2022/05/23 01:23:23;;;;;;;3.07;1.30;;;21.80;86.10;;;;;;5029558;28;20463;-80
2022/05/23 01:25:53;;;;;;;1.43;1.10;;;21.70;83.40;;;;;;5026885;28;20550;-80
2022/05/23 01:28:21;;;;;;;1.33;0.90;;;21.60;86.30;;;;;;5022543;28;20491;-79
2022/05/23 01:30:50;;;;;;;1.40;1.30;;;21.50;82.50;;;;;;5020392;28;20460;-80
2022/05/23 01:33:19;;;;;;;1.37;1.00;;;21.50;81.90;;;;;;5026767;28;20894;-79
2022/05/23 01:35:47;;;;;;;1.57;1.20;;;21.50;83.80;;;;;;5023168;28;20504;-80
2022/05/23 01:38:15;;;;;;;1.10;1.10;;;21.50;84.60;;;;;;5020160;28;20716;-80
2022/05/23 01:40:43;;;;;;;1.30;1.20;;;21.50;84.50;;;;;;5024129;28;20460;-80
2022/05/23 01:43:13;;;;;;;2.03;1.13;;;21.40;84.70;;;;;;5026604;28;20456;-80
2022/05/23 01:45:41;;;;;;;1.40;1.30;;;21.50;85.10;;;;;;5026053;28;20513;-80
2022/05/23 01:48:09;;;;;;;1.63;1.23;;;21.50;85.30;;;;;;5026179;28;20518;-80
2022/05/23 01:50:38;;;;;;;1.10;1.10;;;21.40;81.90;;;;;;5020961;28;20468;-80
2022/05/23 01:53:06;;;;;;;1.40;1.30;;;21.40;84.00;;;;;;5025457;28;20461;-81
2022/05/23 01:55:36;;;;;;;1.30;1.20;;;21.40;88.30;;;;;;5029053;28;20529;-81
2022/05/23 01:58:05;;;;;;;1.43;1.10;;;21.40;85.60;;;;;;5023119;28;20484;-80
2022/05/23 02:03:21;;;;;;;1.13;1.03;;;21.30;84.80;;;;;;5021430;28;20491;-79
2022/05/23 02:05:49;;;;;;;1.63;1.47;;;21.30;86.80;;;;;;5018105;28;20465;-80
2022/05/23 02:08:17;;;;;;;1.93;1.30;;;21.40;88.40;;;;;;5021512;28;20964;-79
2022/05/23 02:10:45;;;;;;;2.30;1.10;;;21.30;87.70;;;;;;5023356;28;20464;-80
2022/05/23 02:13:20;;;;;;;1.30;1.20;;;21.30;85.00;;;;;;5021796;28;20513;-79
2022/05/23 02:15:49;;;;;;;2.27;1.13;;;21.30;86.00;;;;;;5021771;28;20468;-80
2022/05/23 02:18:18;;;;;;;1.60;1.50;;;21.30;85.90;;;;;;5025617;28;20480;-80
2022/05/23 02:20:46;;;;;;;1.20;1.10;;;21.30;86.20;;;;;;5024412;28;20870;-80
2022/05/23 02:23:14;;;;;;;1.23;1.13;;;21.20;86.80;;;;;;5024158;28;20859;-80
2022/05/23 02:25:43;;;;;;;1.20;1.20;;;21.30;86.60;;;;;;5025818;28;20446;-79
2022/05/23 02:28:11;;;;;;;1.23;1.20;;;21.30;88.70;;;;;;5025605;28;20476;-79
2022/05/23 02:30:39;;;;;;;1.50;1.40;;;21.30;89.70;;;;;;5021362;28;20803;-79
2022/05/23 02:33:09;;;;;;;1.23;1.10;;;21.20;88.60;;;;;;5023538;28;20534;-79
2022/05/23 02:35:38;;;;;;;1.70;1.10;;;21.20;86.30;;;;;;5021559;28;20951;-79
2022/05/23 02:38:07;;;;;;;1.30;1.20;;;21.20;87.90;;;;;;5023020;28;20847;-80
2022/05/23 02:40:35;;;;;;;1.30;1.20;;;21.30;89.30;;;;;;5020274;28;20464;-79
2022/05/23 02:43:03;;;;;;;1.43;1.27;;;21.20;89.50;;;;;;5021997;28;20452;-79
2022/05/23 02:45:32;;;;;;;1.40;1.10;;;21.20;90.00;;;;;;5018023;28;20453;-79
2022/05/23 02:48:00;;;;;;;1.23;1.07;;;21.20;89.20;;;;;;5023578;28;20463;-79
2022/05/23 02:50:30;;;;;;;1.60;1.00;;;21.10;87.20;;;;;;5024040;28;20454;-79
2022/05/23 02:52:58;;;;;;;1.23;1.13;;;21.10;89.50;;;;;;5023679;28;20453;-80
2022/05/23 02:55:26;;;;;;;1.30;1.20;;;21.10;89.00;;;;;;5020756;28;20453;-79
2022/05/23 02:57:55;;;;;;;1.50;1.40;;;21.10;88.20;;;;;;5013205;28;20485;-80
2022/05/23 03:00:23;;;;;;;1.90;1.30;;;21.00;90.00;;;;;;5013947;28;20460;-80
2022/05/23 03:03:03;;;;;;;1.17;1.07;;;21.10;88.60;;;;;;5021544;28;20454;-79
2022/05/23 03:05:38;;;;;;;1.00;0.90;;;21.10;84.70;;;;;;5023821;28;20562;-79
2022/05/23 03:08:07;;;;;;;1.30;1.20;;;21.20;82.90;;;;;;5019006;28;20474;-79
2022/05/23 03:10:36;;;;;;;1.37;1.10;;;21.20;81.70;;;;;;5022647;28;20483;-79
2022/05/23 03:13:05;;;;;;;1.00;1.00;;;21.20;81.70;;;;;;5027065;28;20458;-79
2022/05/23 03:15:34;;;;;;;0.90;0.80;;;21.30;81.60;;;;;;5022688;28;20452;-79
2022/05/23 03:18:03;;;;;;;1.17;1.07;;;21.30;81.50;;;;;;5021368;28;20476;-79
2022/05/23 03:20:31;;;;;;;1.03;1.00;;;21.40;83.00;;;;;;5022221;28;20475;-79
2022/05/23 03:28:34;;;;;;;1.27;1.17;;;21.30;82.40;;;;;;5019675;28;20568;-80
2022/05/23 03:31:03;;;;;;;1.23;1.10;;;21.40;83.60;;;;;;5024584;28;20462;-80
2022/05/23 03:33:32;;;;;;;1.10;1.03;;;21.40;84.10;;;;;;5021061;28;21022;-80
2022/05/23 03:36:01;;;;;;;1.03;1.00;;;21.40;82.10;;;;;;5021022;28;20464;-81
2022/05/23 03:38:30;;;;;;;4.83;1.27;;;21.40;82.80;;;;;;5024082;28;20469;-80
2022/05/23 03:41:05;;;;;;;1.27;1.17;;;21.50;85.20;;;;;;5021160;28;20473;-79
2022/05/23 03:43:34;;;;;;;1.30;1.20;;;21.40;85.40;;;;;;5022030;28;20518;-79
2022/05/23 03:46:06;;;;;;;1.87;1.30;;;21.40;89.20;;;;;;5022786;28;20457;-80
2022/05/23 03:48:35;;;;;;;1.20;1.10;;;21.40;88.80;;;;;;5020665;28;20508;-79
2022/05/23 03:51:04;;;;;;;1.47;1.37;;;21.40;90.30;;;;;;5024104;28;21972;-79
2022/05/23 03:53:34;;;;;;;1.30;1.20;;;21.40;89.20;;;;;;5018981;28;20464;-80
2022/05/23 03:56:02;;;;;;;1.10;1.00;;;21.40;87.90;;;;;;5023079;28;20455;-80
2022/05/23 03:58:31;;;;;;;1.63;1.07;;;21.30;85.60;;;;;;5024185;28;20499;-79
2022/05/23 04:01:06;;;;;;;2.10;1.10;;;21.30;84.80;;;;;;5018563;28;20453;-80
2022/05/23 04:03:34;;;;;;;1.20;1.10;;;21.20;81.70;;;;;;5018802;28;21192;-79
2022/05/23 04:06:04;;;;;;;1.20;1.10;;;21.10;85.30;;;;;;5016570;28;20444;-79
2022/05/23 04:08:34;;;;;;;1.30;1.20;;;21.20;83.50;;;;;;5021652;28;21149;-79
2022/05/23 04:11:03;;;;;;;2.10;1.47;;;21.30;85.40;;;;;;5022453;28;20450;-80
2022/05/23 04:13:32;;;;;;;1.20;1.10;;;21.40;84.30;;;;;;5018427;28;20544;-80
2022/05/23 04:16:00;;;;;;;1.50;1.20;;;21.40;86.20;;;;;;5017870;28;20990;-79
2022/05/23 04:18:29;;;;;;;2.23;1.20;;;21.30;86.70;;;;;;5025457;28;20517;-79
2022/05/23 04:20:59;;;;;;;1.80;1.23;;;21.20;85.30;;;;;;5030116;28;20465;-80
2022/05/23 04:23:27;;;;;;;2.93;2.73;;;21.20;83.20;;;;;;5019955;28;20507;-80
2022/05/23 04:26:01;;;;;;;1.83;1.40;;;21.30;87.30;;;;;;5016402;28;20508;-80
2022/05/23 04:28:30;;;;;;;1.37;1.27;;;21.20;86.20;;;;;;5020923;28;20503;-79
2022/05/23 04:30:59;;;;;;;2.60;1.50;;;21.30;87.90;;;;;;5017950;28;20445;-81
2022/05/23 04:36:13;;;;;;;3.23;1.70;;;21.20;90.40;;;;;;5020563;28;20452;-75
2022/05/23 04:38:44;;;;;;;3.33;1.50;;;20.80;94.40;;;;;;5017468;28;20476;-77
2022/05/23 04:41:14;;;;;;;1.43;1.33;;;20.70;99.90;;;;;;5026898;28;20456;-76
2022/05/23 04:43:42;;;;;;;2.67;1.40;;;20.70;99.90;;;;;;5024907;28;20461;-76
2022/05/23 04:46:11;;;;;;;1.40;1.30;;;20.80;99.90;;;;;;5019304;28;20464;-76
2022/05/23 04:51:25;;;;;;;2.57;1.63;;;20.90;99.90;;;;;;5011797;28;20468;-76
2022/05/23 04:53:54;;;;;;;2.37;1.40;;;20.90;99.90;;;;;;5015058;28;20452;-78
2022/05/23 04:56:24;;;;;;;3.10;2.70;;;20.90;99.90;;;;;;5021590;28;20456;-77
2022/05/23 04:58:53;;;;;;;3.50;2.43;;;20.80;99.90;;;;;;5013470;28;21626;-76
2022/05/23 05:01:22;;;;;;;1.77;1.60;;;20.70;99.90;;;;;;5025386;28;20465;-76
2022/05/23 05:03:53;;;;;;;2.30;1.43;;;20.70;99.90;;;;;;5032015;28;20498;-77
2022/05/23 05:06:21;;;;;;;2.47;1.30;;;20.70;99.90;;;;;;5025011;28;20450;-77
2022/05/23 05:08:51;;;;;;;1.53;1.30;;;20.80;99.90;;;;;;5037174;28;21053;-77
2022/05/23 05:11:19;;;;;;;2.20;1.20;;;20.80;99.90;;;;;;5023981;28;20467;-76
2022/05/23 05:13:49;;;;;;;1.53;1.43;;;20.80;99.90;;;;;;5021006;28;20470;-77
2022/05/23 05:16:19;;;;;;;1.27;1.17;;;20.80;99.90;;;;;;5023906;28;20457;-78
2022/05/23 05:18:47;;;;;;;1.57;1.20;;;20.80;99.90;;;;;;5024723;28;20495;-77
2022/05/23 05:21:15;;;;;;;1.93;1.40;;;20.80;99.90;;;;;;5027854;28;20476;-77
2022/05/23 05:23:44;;;;;;;1.43;1.10;;;20.70;99.90;;;;;;5035456;28;20453;-77
2022/05/23 05:26:12;;;;;;;2.73;1.10;;;20.70;99.90;;;;;;5022587;28;20518;-77
2022/05/23 05:28:41;;;;;;;3.47;1.47;;;20.70;99.90;;;;;;5011501;28;20484;-77
2022/05/23 05:31:14;;;;;;;3.37;1.10;;;20.70;99.90;;;;;;5022705;28;20982;-77
2022/05/23 05:33:50;;;;;;;1.17;1.07;;;20.60;99.90;;;;;;5025516;28;20488;-77
2022/05/23 05:36:22;;;;;;;2.50;1.10;;;20.60;99.90;;;;;;5027263;28;20436;-78
2022/05/23 05:38:54;;;;;;;2.10;1.40;;;20.50;99.90;;;;;;5030795;28;20518;-77
2022/05/23 05:41:26;;;;;;;1.30;1.10;;;20.30;99.90;;;;;;5028094;28;20452;-77
2022/05/23 05:43:58;;;;;;;1.40;1.30;;;20.30;99.90;;;;;;5016469;28;20464;-77
2022/05/23 05:46:32;;;;;;;1.30;1.20;;;20.30;99.90;;;;;;5019767;28;20476;-76
2022/05/23 05:49:03;;;;;;;1.50;1.40;;;20.20;99.90;;;;;;5025616;28;20538;-76
2022/05/23 05:51:32;;;;;;;1.47;1.30;;;20.00;99.90;;;;;;5024514;28;20463;-77
2022/05/23 05:54:01;;;;;;;1.60;1.50;;;20.00;99.90;;;;;;5016460;28;21023;-77
2022/05/23 05:56:29;;;;;;;1.37;1.27;;;19.70;99.90;;;;;;5023787;28;20457;-77
2022/05/23 05:58:58;;;;;;;1.63;1.40;;;19.80;99.90;;;;;;5025904;28;20500;-77
2022/05/23 06:01:28;;;;;;;1.57;1.47;;;19.90;99.90;;;;;;5019764;28;20472;-77
2022/05/23 06:03:56;;;;;;;1.53;1.40;;;19.80;99.90;;;;;;5023994;28;20453;-76
2022/05/23 06:11:59;;;;;;;1.93;1.63;;;19.90;99.90;;;;;;5014727;28;20457;-77
2022/05/23 06:14:27;;;;;;;1.90;1.70;;;19.90;99.90;;;;;;5018926;28;20472;-77
2022/05/23 06:16:57;;;;;;;2.73;1.70;;;19.90;99.90;;;;;;5021808;28;20461;-77
2022/05/23 06:19:26;;;;;;;2.10;1.90;;;19.80;99.90;;;;;;5017321;28;20550;-76
2022/05/23 06:21:54;;;;;;;1.57;1.40;;;19.50;99.90;;;;;;5018495;28;20457;-76
2022/05/23 06:24:23;;;;;;;1.40;1.30;;;19.50;99.90;;;;;;5013962;28;21019;-77
2022/05/23 06:26:51;;;;;;;1.90;1.80;;;19.60;1.00;;;;;;5020022;28;20489;-78
2022/05/23 06:29:19;;;;;;;4.27;1.80;;;19.60;99.90;;;;;;5023921;28;20475;-77
2022/05/23 06:31:48;;;;;;;1.47;1.37;;;19.60;1.00;;;;;;5016996;28;20489;-77
2022/05/23 06:34:18;;;;;;;1.73;1.33;;;19.70;99.90;;;;;;5020358;28;20964;-77
2022/05/23 06:36:46;;;;;;;1.87;1.70;;;19.70;99.90;;;;;;5023531;28;20515;-77
2022/05/23 06:39:14;;;;;;;2.57;1.70;;;19.70;99.90;;;;;;5020257;28;20528;-77
2022/05/23 06:41:43;;;;;;;1.83;1.70;;;19.80;1.00;;;;;;5024884;28;20460;-77
2022/05/23 06:44:11;;;;;;;3.30;1.70;;;19.70;1.00;;;;;;5017931;28;20483;-77
2022/05/23 06:46:39;;;;;;;2.80;1.97;;;19.60;1.00;;;;;;5026229;28;21108;-77
2022/05/23 06:49:08;;;;;;;2.63;2.00;;;19.70;1.00;;;;;;5016321;28;20481;-78
2022/05/23 06:51:49;;;;;;;2.30;1.87;;;19.70;1.00;;;;;;5020514;28;20523;-77
2022/05/23 06:54:18;;;;;;;2.97;1.63;;;19.70;1.00;;;;;;5015928;28;20559;-77
2022/05/23 06:56:48;;;;;;;1.50;1.40;;;19.90;1.00;;;;;;5019179;28;20530;-77
2022/05/23 06:59:18;;;;;;;1.50;1.40;;;19.90;99.90;;;;;;5013278;28;21057;-77
2022/05/23 07:01:47;;;;;;;2.13;1.90;;;19.90;1.00;;;;;;5014157;28;20481;-76
2022/05/23 07:04:16;;;;;;;2.03;1.60;;;20.00;99.90;;;;;;5021644;28;20448;-78
2022/05/23 07:12:28;;;;;;;4.17;2.20;;;20.50;99.90;;;;;;5038148;28;21278;-77
2022/05/23 07:14:57;;;;;;;2.03;1.37;;;20.60;99.90;;;;;;5014975;28;20543;-78
2022/05/23 07:17:26;;;;;;;1.80;1.40;;;20.70;99.90;;;;;;5022314;28;20479;-77
2022/05/23 07:19:57;;;;;;;3.13;1.57;;;20.80;99.90;;;;;;5019734;28;20479;-75
2022/05/23 07:22:27;;;;;;;1.50;1.40;;;20.50;99.90;;;;;;5017997;28;20456;-77
2022/05/23 07:24:57;;;;;;;1.70;1.60;;;20.40;99.90;;;;;;5018941;28;20995;-77
2022/05/23 07:27:27;;;;;;;1.90;1.57;;;20.30;99.90;;;;;;5019882;28;21069;-77
2022/05/23 07:29:57;;;;;;;3.80;1.60;;;20.30;99.90;;;;;;5015623;28;20448;-77
2022/05/23 07:32:25;;;;;;;1.70;1.50;;;20.30;99.90;;;;;;5019054;28;20500;-78
2022/05/23 07:34:53;;;;;;;1.57;1.47;;;20.50;99.90;;;;;;5022242;28;20457;-77
2022/05/23 07:37:22;;;;;;;1.50;1.40;;;20.30;99.90;;;;;;5009497;28;20479;-77
2022/05/23 07:39:51;;;;;;;2.30;1.40;;;20.50;99.90;;;;;;5014676;28;21248;-77
2022/05/23 07:42:20;;;;;;;1.50;1.30;;;20.60;99.90;;;;;;5020035;28;21115;-77
2022/05/23 07:44:48;;;;;;;2.57;1.53;;;20.70;99.90;;;;;;5025325;28;20452;-77
2022/05/23 07:47:17;;;;;;;1.90;1.63;;;20.80;99.90;;;;;;5021095;28;21165;-77
2022/05/23 07:49:47;;;;;;;1.63;1.53;;;20.80;99.90;;;;;;5016360;28;20999;-76
2022/05/23 07:52:16;;;;;;;1.63;1.53;;;20.70;99.90;;;;;;5011031;28;20471;-77
2022/05/23 08:00:33;;;;;;;1.50;1.40;;;20.40;99.90;;;;;;4967761;28;21112;-77
2022/05/23 08:03:04;;;;;;;1.70;1.60;;;20.60;99.90;;;;;;5022287;28;20464;-77
2022/05/23 08:05:33;;;;;;;1.70;1.60;;;20.80;99.90;;;;;;5013336;28;20464;-77
2022/05/23 08:08:02;;;;;;;2.03;1.93;;;20.80;99.90;;;;;;5020188;28;21003;-77
2022/05/23 08:10:30;;;;;;;1.67;1.53;;;20.90;99.90;;;;;;5013101;28;20555;-77
2022/05/23 08:13:02;;;;;;;2.40;1.40;;;21.10;99.90;;;;;;5016196;28;20499;-76
2022/05/23 08:15:31;;;;;;;1.70;1.50;;;21.10;99.90;;;;;;5013577;28;20481;-76
2022/05/23 08:18:00;;;;;;;1.70;1.60;;;21.20;99.90;;;;;;5012441;28;20516;-77
2022/05/23 08:20:28;;;;;;;3.50;1.60;;;21.10;99.90;;;;;;5015588;28;20495;-76
2022/05/23 08:22:57;;;;;;;1.50;1.40;;;21.30;99.90;;;;;;5020112;28;20440;-77
2022/05/23 08:25:26;;;;;;;1.87;1.67;;;21.40;99.90;;;;;;5015922;28;20475;-77
2022/05/23 08:27:54;;;;;;;3.70;1.50;;;21.40;99.90;;;;;;5022095;28;20485;-76
2022/05/23 08:30:24;;;;;;;1.73;1.63;;;21.30;99.90;;;;;;5030888;28;20456;-76
2022/05/23 08:32:52;;;;;;;1.50;1.40;;;21.40;99.90;;;;;;5027971;28;20457;-76
2022/05/23 08:35:21;;;;;;;2.83;1.57;;;21.50;99.90;;;;;;5020900;28;21161;-77
2022/05/23 08:37:55;;;;;;;3.10;1.60;;;21.60;99.90;;;;;;5021241;28;20534;-77
2022/05/23 08:40:34;;;;;;;2.50;1.83;;;21.70;99.90;;;;;;5017774;28;20491;-77
2022/05/23 08:43:06;;;;;;;2.00;1.30;;;21.70;99.90;;;;;;5013827;28;20504;-76
2022/05/23 08:45:41;;;;;;;1.50;1.40;;;21.60;99.90;;;;;;5016991;28;20456;-77
2022/05/23 08:48:15;;;;;;;1.60;1.37;;;21.60;99.90;;;;;;5023993;28;20463;-77
2022/05/23 08:50:55;;;;;;;2.20;1.60;;;21.50;99.90;;;;;;5017173;28;20533;-77
2022/05/23 08:53:28;;;;;;;1.40;1.30;;;21.50;99.90;;;;;;5015163;28;20453;-77
2022/05/23 08:56:01;;;;;;;4.10;1.57;;;21.40;99.90;;;;;;5020064;28;20982;-76
2022/05/23 08:58:35;;;;;;;2.07;1.20;;;21.40;99.90;;;;;;5024402;28;20475;-77
2022/05/23 09:01:12;;;;;;;2.23;1.57;;;21.40;99.90;;;;;;5020382;28;20571;-77
2022/05/23 09:03:47;;;;;;;1.63;1.53;;;21.30;99.90;;;;;;5021345;28;20451;-77
2022/05/23 09:06:23;;;;;;;1.60;1.30;;;21.30;99.90;;;;;;5013481;28;20445;-77
2022/05/23 09:08:54;;;;;;;1.80;1.40;;;21.40;99.90;;;;;;5021636;28;20482;-77
2022/05/23 09:11:34;;;;;;;2.70;1.60;;;21.40;99.90;;;;;;5014067;28;20468;-77
2022/05/23 09:14:05;;;;;;;1.83;1.30;;;21.30;99.90;;;;;;5017967;28;20468;-77
2022/05/23 09:16:40;;;;;;;2.00;1.50;;;21.30;99.90;;;;;;5018571;28;20448;-77
2022/05/23 09:19:17;;;;;;;2.57;1.50;;;21.10;99.90;;;;;;5017861;28;20490;-77
2022/05/23 09:24:39;;;;;;;1.60;1.50;;;21.10;1.00;;;;;;5018796;28;20444;-77
2022/05/23 09:27:16;;;;;;;1.53;1.43;;;21.20;1.00;;;;;;5021527;28;20452;-78
2022/05/23 09:29:49;;;;;;;2.13;1.70;;;21.40;1.00;;;;;;5024855;28;20448;-77
2022/05/23 09:32:23;;;;;;;1.83;1.37;;;21.50;99.90;;;;;;5022989;28;20460;-77
2022/05/23 09:34:57;;;;;;;1.87;1.63;;;21.40;1.00;;;;;;5017402;28;20822;-76
2022/05/23 09:37:31;;;;;;;1.60;1.20;;;21.60;1.00;;;;;;5017841;28;20476;-77
2022/05/23 09:40:01;;;;;;;2.47;1.30;;;21.80;99.90;;;;;;5023104;28;20483;-77
2022/05/23 09:48:23;;;;;;;2.00;1.80;;;22.10;99.90;;;;;;5023543;28;20867;-77
2022/05/23 09:50:55;;;;;;;2.00;1.80;;;22.20;99.90;;;;;;5016070;28;20484;-77
2022/05/23 09:53:27;;;;;;;2.90;1.33;;;22.20;99.90;;;;;;5024645;28;20451;-77
2022/05/23 09:56:38;;;;;;;2.40;1.67;;;22.20;99.90;;;;;;5016343;28;20453;-77
2022/05/23 09:59:10;;;;;;;3.43;2.07;;;22.20;99.90;;;;;;5014667;28;20476;-77
2022/05/23 10:01:39;;;;;;;1.50;1.40;;;22.30;99.90;;;;;;5021806;28;20493;-77
2022/05/23 10:04:18;;;;;;;2.20;1.57;;;22.10;99.90;;;;;;5013477;28;20470;-77
2022/05/23 10:06:48;;;;;;;2.73;1.53;;;22.20;99.90;;;;;;5020852;28;20984;-77
2022/05/23 10:09:26;;;;;;;2.47;1.77;;;22.20;99.90;;;;;;5013449;28;21013;-76
2022/05/23 10:11:57;;;;;;;1.50;1.40;;;22.10;99.90;;;;;;5016334;28;20452;-76
2022/05/23 10:14:37;;;;;;;1.90;1.80;;;22.10;99.90;;;;;;5017072;28;20473;-79
2022/05/23 10:17:06;;;;;;;1.60;1.47;;;22.30;99.90;;;;;;5017245;28;20459;-80
2022/05/23 10:19:37;;;;;;;1.60;1.50;;;22.40;99.90;;;;;;5015231;28;20463;-79
2022/05/23 10:22:13;;;;;;;1.53;1.43;;;22.60;99.90;;;;;;5022645;28;20971;-79
2022/05/23 10:24:50;;;;;;;2.53;1.60;;;22.60;99.90;;;;;;5015043;28;20493;-79
2022/05/23 10:27:27;;;;;;;1.90;1.80;;;22.70;99.90;;;;;;5014915;28;20475;-78
2022/05/23 10:29:58;;;;;;;3.43;1.90;;;22.80;99.90;;;;;;5013619;28;20555;-78
2022/05/23 10:32:35;;;;;;;1.90;1.70;;;22.70;99.90;;;;;;5016268;28;20467;-79
2022/05/23 10:35:14;;;;;;;1.80;1.40;;;22.70;99.90;;;;;;5021176;28;20467;-79
2022/05/23 10:37:44;;;;;;;2.30;1.73;;;22.70;99.90;;;;;;5016663;28;20567;-79
2022/05/23 10:43:11;;;;;;;2.33;2.10;;;22.60;99.90;;;;;;5018721;28;20499;-79
2022/05/23 10:45:46;;;;;;;2.53;1.93;;;22.60;99.90;;;;;;5023209;28;20451;-79
2022/05/23 10:48:39;;;;;;;1.83;1.73;;;22.60;99.90;;;;;;5027068;28;20537;-79
2022/05/23 10:51:18;;;;;;;3.20;1.70;;;22.70;99.90;;;;;;5028850;28;20460;-79
2022/05/23 10:54:01;;;;;;;3.00;2.00;;;22.70;99.90;;;;;;5015555;28;20467;-79
2022/05/23 10:56:42;;;;;;;2.33;1.70;;;22.60;99.90;;;;;;5017531;28;20469;-78
2022/05/23 10:59:17;;;;;;;2.83;1.73;;;22.70;99.90;;;;;;5025451;28;20476;-78
2022/05/23 11:01:56;;;;;;;2.53;1.90;;;22.50;99.90;;;;;;5012147;28;20492;-77
2022/05/23 11:04:39;;;;;;;3.27;1.90;;;22.60;99.90;;;;;;5028639;28;20467;-77
2022/05/23 11:07:30;;;;;;;3.63;2.63;;;22.30;99.90;;;;;;5029018;28;20963;-76
2022/05/23 11:10:02;;;;;;;2.60;1.77;;;22.30;99.90;;;;;;5029629;28;20486;-76
2022/05/23 11:12:58;;;;;;;2.43;2.20;;;22.00;1.00;;;;;;5027866;28;20451;-76
2022/05/23 11:15:39;;;;;;;3.80;2.33;;;22.00;1.00;;;;;;5021941;28;20448;-77
2022/05/23 11:18:15;;;;;;;3.00;2.53;;;21.90;99.90;;;;;;5028945;28;20460;-76
2022/05/23 11:20:43;;;;;;;3.13;2.70;;;21.60;1.00;;;;;;5026546;28;20495;-76
2022/05/23 11:23:28;;;;;;;5.20;2.70;;;21.30;99.90;;;;;;5022637;28;20444;-76
2022/05/23 11:26:00;;;;;;;4.53;2.17;;;21.10;99.90;;;;;;5028845;28;20464;-76
2022/05/23 11:34:18;;;;;;;4.30;2.30;;;20.70;1.00;;;;;;5023496;28;20444;-76
2022/05/23 11:37:00;;;;;;;2.90;2.23;;;20.60;1.00;;;;;;5020103;28;20459;-76
2022/05/23 11:39:48;;;;;;;3.43;2.10;;;20.70;99.90;;;;;;5028120;28;20447;-76
2022/05/23 11:42:27;;;;;;;5.20;2.10;;;20.30;1.00;;;;;;5024445;28;20479;-76
2022/05/23 11:48:24;;;;;;;2.30;1.60;;;19.70;99.90;;;;;;5028400;28;20554;-76
2022/05/23 11:50:52;;;;;;;2.60;1.73;;;20.00;99.90;;;;;;5022563;28;20475;-76
2022/05/23 11:53:27;;;;;;;1.50;1.40;;;20.00;1.00;;;;;;5018023;28;20862;-76
2022/05/23 11:56:09;;;;;;;3.90;1.40;;;19.80;91.30;;;;;;5007989;28;20456;-74
2022/05/23 11:58:56;;;;;;;1.53;1.43;;;19.80;99.90;;;;;;5014660;28;20479;-76
2022/05/23 12:01:27;;;;;;;3.07;1.37;;;19.90;1.00;;;;;;5009639;28;20797;-77
2022/05/23 12:04:19;;;;;;;3.77;1.30;;;19.90;1.00;;;;;;5016997;28;20490;-77
2022/05/23 12:06:47;;;;;;;2.20;1.20;;;20.00;99.90;;;;;;5014757;28;20467;-76
2022/05/23 12:09:34;;;;;;;1.43;1.27;;;20.30;99.90;;;;;;5018812;28;20476;-76
2022/05/23 12:12:39;;;;;;;1.83;1.13;;;20.60;1.00;;;;;;5021601;28;20506;-77
2022/05/23 12:15:09;;;;;;;3.33;1.27;;;20.80;1.00;;;;;;5022022;28;20440;-76
2022/05/23 12:17:38;;;;;;;1.40;1.17;;;21.00;99.90;;;;;;5015253;28;20480;-76
2022/05/23 12:20:25;;;;;;;2.70;1.23;;;21.10;99.90;;;;;;5020808;28;20472;-76
2022/05/23 12:23:18;;;;;;;1.63;1.10;;;21.10;99.90;;;;;;5023605;28;20546;-77
2022/05/23 12:26:20;;;;;;;1.50;1.00;;;21.20;99.90;;;;;;5020450;28;20569;-77
2022/05/23 12:28:52;;;;;;;4.17;1.60;;;21.30;10.00;;;;;;5011534;28;20499;-76
2022/05/23 12:31:23;;;;;;;2.77;1.30;;;21.10;99.90;;;;;;5012062;28;20452;-76
2022/05/23 12:34:07;;;;;;;1.83;1.30;;;20.20;1.00;;;;;;5014990;28;20972;-77
2022/05/23 12:36:39;;;;;;;2.30;1.07;;;19.90;98.30;;;;;;5010664;28;20484;-77
2022/05/23 12:39:30;;;;;;;1.50;1.30;;;20.10;1.00;;;;;;5011311;28;20583;-76
2022/05/23 12:42:07;;;;;;;1.30;1.10;;;20.30;49.30;;;;;;5026176;28;20566;-77
2022/05/23 12:45:16;;;;;;;2.93;1.40;;;20.70;99.90;;;;;;5012859;28;20533;-77
2022/05/23 12:48:28;;;;;;;3.10;1.40;;;20.90;99.90;;;;;;5014020;28;20495;-76
2022/05/23 12:51:12;;;;;;;2.00;1.60;;;21.00;1.00;;;;;;5010122;28;20998;-77
2022/05/23 12:53:58;;;;;;;1.60;1.30;;;21.00;1.00;;;;;;5013443;28;21118;-77
2022/05/23 12:56:59;;;;;;;4.40;1.20;;;20.90;1.00;;;;;;5024300;28;20461;-77
2022/05/23 12:59:44;;;;;;;3.03;1.83;;;20.80;1.00;;;;;;5013219;28;20539;-76
2022/05/23 13:02:16;;;;;;;1.47;1.00;;;21.00;99.90;;;;;;5013528;28;20462;-77
2022/05/23 13:04:50;;;;;;;2.93;1.33;;;21.00;99.90;;;;;;5027312;28;20548;-76
2022/05/23 13:07:24;;;;;;;1.97;0.93;;;21.00;1.00;;;;;;5018033;28;20495;-77
2022/05/23 13:09:57;;;;;;;2.17;1.63;;;20.90;1.00;;;;;;5023025;28;20462;-77
2022/05/23 13:12:31;;;;;;;3.03;1.37;;;20.60;99.90;;;;;;5018789;28;20467;-77
2022/05/23 13:15:01;;;;;;;5.47;1.20;;;20.60;1.00;;;;;;5019817;28;20452;-76
2022/05/23 13:17:35;;;;;;;3.77;1.10;;;20.60;99.90;;;;;;5031083;28;20658;-76
2022/05/23 13:23:03;;;;;;;2.60;1.40;;;20.90;99.90;;;;;;5030990;28;20490;-76
2022/05/23 13:25:33;;;;;;;3.27;1.20;;;21.00;1.00;;;;;;5033405;28;20444;-76
2022/05/23 13:28:01;;;;;;;2.57;1.30;;;21.10;1.00;;;;;;5024474;28;20486;-77
2022/05/23 13:30:35;;;;;;;3.17;1.00;;;21.20;1.00;;;;;;5029418;28;20515;-76
2022/05/23 13:33:09;;;;;;;4.23;1.30;;;21.40;99.90;;;;;;5030960;28;20806;-76
2022/05/23 13:35:39;;;;;;;2.10;1.50;;;21.40;1.00;;;;;;5030590;28;20448;-76
2022/05/23 13:38:22;;;;;;;2.73;1.37;;;21.30;99.90;;;;;;5030534;28;20460;-77
2022/05/23 13:40:53;;;;;;;1.53;1.30;;;21.50;99.90;;;;;;5021762;28;20498;-77
2022/05/23 13:43:24;;;;;;;2.77;1.30;;;21.70;1.00;;;;;;5028456;28;20469;-77
2022/05/23 13:46:03;;;;;;;2.30;1.43;;;21.90;99.90;;;;;;5026999;28;20457;-77
2022/05/23 13:48:39;;;;;;;7.80;1.60;;;21.70;99.90;;;;;;5019244;28;20472;-76
2022/05/23 13:51:13;;;;;;;2.80;1.60;;;21.70;99.90;;;;;;5030747;28;20468;-76
2022/05/23 13:53:45;;;;;;;2.83;2.23;;;21.80;1.00;;;;;;5022516;28;21001;-77
2022/05/23 13:56:14;;;;;;;1.70;1.30;;;22.00;1.00;;;;;;5022269;28;20474;-76
2022/05/23 13:58:46;;;;;;;1.57;1.10;;;22.10;99.90;;;;;;5030679;28;20467;-76
2022/05/23 14:01:22;;;;;;;1.73;1.30;;;22.00;99.90;;;;;;5016766;28;21272;-77
2022/05/23 14:03:58;;;;;;;3.30;1.30;;;22.40;1.00;;;;;;5020130;28;20460;-77
2022/05/23 14:06:33;;;;;;;1.23;1.10;;;22.40;1.00;;;;;;5019793;28;20548;-75
2022/05/23 14:09:03;;;;;;;1.13;1.03;;;22.50;1.00;;;;;;5023741;28;20991;-77
2022/05/23 14:11:35;;;;;;;2.10;1.30;;;22.60;1.00;;;;;;5018721;28;20467;-77
2022/05/23 14:14:14;;;;;;;4.20;1.33;;;22.60;1.00;;;;;;5024891;28;20471;-76
2022/05/23 14:16:53;;;;;;;2.77;1.53;;;22.50;1.00;;;;;;5028771;28;20443;-77